createdAt,value
2022-09-16T00:01:22.732Z,99.90
2022-09-16T00:03:54.046Z,99.90
2022-09-16T00:06:23.571Z,99.90
2022-09-16T00:08:51.542Z,99.90
2022-09-16T00:11:19.281Z,99.90
2022-09-16T00:13:47.257Z,99.90
2022-09-16T00:16:20.269Z,99.90
2022-09-16T00:18:48.747Z,99.90
2022-09-16T00:21:16.542Z,99.90
2022-09-16T00:23:45.787Z,99.90
2022-09-16T00:26:14.120Z,99.90
2022-09-16T00:28:43.508Z,99.90
2022-09-16T00:31:11.389Z,99.90
2022-09-16T00:33:39.490Z,99.90
2022-09-16T00:36:11.759Z,99.90
2022-09-16T00:38:39.857Z,99.90
2022-09-16T00:41:08.441Z,99.90
2022-09-16T00:43:56.643Z,99.90
2022-09-16T00:46:56.241Z,99.90
2022-09-16T00:49:29.069Z,99.90
2022-09-16T00:52:02.315Z,99.90
2022-09-16T00:54:31.108Z,99.90
2022-09-16T00:57:00.730Z,99.90
2022-09-16T00:59:36.031Z,99.90
2022-09-16T01:02:07.112Z,99.90
2022-09-16T01:04:37.098Z,99.90
2022-09-16T01:07:04.922Z,99.90
2022-09-16T01:09:33.617Z,99.90
2022-09-16T01:12:01.832Z,99.90
2022-09-16T01:14:48.833Z,99.90
2022-09-16T01:17:35.647Z,99.90
2022-09-16T01:20:12.473Z,99.90
2022-09-16T01:23:03.919Z,99.90
2022-09-16T01:25:40.862Z,99.90
2022-09-16T01:28:24.969Z,99.90
2022-09-16T01:31:16.099Z,99.90
2022-09-16T01:33:56.336Z,99.90
2022-09-16T01:36:39.280Z,99.90
2022-09-16T01:39:19.421Z,99.90
2022-09-16T01:41:50.148Z,99.90
2022-09-16T01:44:25.802Z,99.90
2022-09-16T01:47:05.042Z,99.90
2022-09-16T01:49:33.302Z,99.90
2022-09-16T01:52:07.447Z,99.90
2022-09-16T01:54:35.320Z,99.90
2022-09-16T01:57:06.285Z,99.90
2022-09-16T01:59:52.726Z,99.90
2022-09-16T02:06:36.742Z,99.90
2022-09-16T02:09:12.418Z,99.90
2022-09-16T02:11:41.607Z,99.90
2022-09-16T02:14:12.527Z,99.90
2022-09-16T02:17:03.915Z,99.90
2022-09-16T02:19:39.940Z,99.90
2022-09-16T02:22:10.162Z,99.90
2022-09-16T02:24:39.552Z,99.90
2022-09-16T02:27:11.040Z,99.90
2022-09-16T02:29:44.781Z,99.90
2022-09-16T02:32:14.173Z,99.90
2022-09-16T02:34:44.074Z,99.90
2022-09-16T02:37:15.694Z,99.90
2022-09-16T02:39:46.801Z,99.90
2022-09-16T02:42:15.007Z,99.90
2022-09-16T02:44:43.595Z,99.90
2022-09-16T02:47:11.339Z,99.90
2022-09-16T02:49:43.240Z,99.90
2022-09-16T02:52:25.156Z,99.90
2022-09-16T02:55:21.129Z,99.90
2022-09-16T02:57:49.705Z,99.90
2022-09-16T03:00:18.068Z,99.90
2022-09-16T03:02:45.751Z,99.90
2022-09-16T03:05:19.546Z,99.90
2022-09-16T03:07:47.572Z,99.90
2022-09-16T03:10:15.398Z,99.90
2022-09-16T03:13:05.896Z,99.90
2022-09-16T03:15:43.145Z,99.90
2022-09-16T03:18:50.532Z,99.90
2022-09-16T03:21:31.147Z,99.90
2022-09-16T03:24:16.265Z,99.90
2022-09-16T03:27:09.147Z,99.90
2022-09-16T03:30:05.129Z,99.90
2022-09-16T03:32:35.141Z,99.90
2022-09-16T03:35:06.474Z,99.90
2022-09-16T03:37:35.627Z,99.90
2022-09-16T03:40:09.559Z,99.90
2022-09-16T03:42:41.527Z,99.90
2022-09-16T03:45:13.512Z,99.90
2022-09-16T03:47:41.422Z,99.90
2022-09-16T03:50:09.766Z,99.90
2022-09-16T03:52:37.420Z,99.90
2022-09-16T03:55:05.492Z,99.90
2022-09-16T03:57:33.720Z,99.90
2022-09-16T04:00:01.768Z,99.90
2022-09-16T04:02:39.399Z,99.90
2022-09-16T04:05:09.072Z,99.90
2022-09-16T04:07:36.968Z,99.90
2022-09-16T04:10:05.994Z,99.90
2022-09-16T04:12:37.548Z,99.90
2022-09-16T04:15:05.721Z,99.90
2022-09-16T04:17:33.747Z,99.90
2022-09-16T04:20:01.771Z,99.90
2022-09-16T04:22:30.637Z,99.90
2022-09-16T04:24:58.542Z,99.90
2022-09-16T04:27:33.611Z,99.90
2022-09-16T04:30:01.373Z,99.90
2022-09-16T04:32:29.746Z,99.90
2022-09-16T04:34:59.637Z,99.90
2022-09-16T04:37:33.434Z,99.90
2022-09-16T04:40:06.455Z,99.90
2022-09-16T04:42:35.970Z,99.90
2022-09-16T04:45:04.065Z,99.90
2022-09-16T04:47:36.938Z,99.90
2022-09-16T04:50:04.839Z,99.90
2022-09-16T04:52:32.907Z,99.90
2022-09-16T04:55:02.012Z,99.90
2022-09-16T04:57:33.600Z,99.90
2022-09-16T05:00:02.485Z,99.90
2022-09-16T05:02:33.632Z,99.90
2022-09-16T05:05:02.857Z,99.90
2022-09-16T05:07:31.454Z,99.90
2022-09-16T05:09:59.346Z,99.90
2022-09-16T05:12:28.060Z,99.90
2022-09-16T05:14:56.405Z,99.90
2022-09-16T05:17:49.414Z,99.90
2022-09-16T05:20:13.065Z,99.90
2022-09-16T05:22:41.335Z,99.90
2022-09-16T05:25:09.931Z,99.90
2022-09-16T05:27:44.838Z,99.90
2022-09-16T05:30:14.683Z,99.90
2022-09-16T05:32:42.799Z,99.90
2022-09-16T05:35:10.833Z,99.90
2022-09-16T05:37:38.662Z,99.90
2022-09-16T05:40:06.766Z,99.90
2022-09-16T05:42:34.419Z,99.90
2022-09-16T05:45:02.653Z,99.90
2022-09-16T05:47:41.791Z,99.90
2022-09-16T05:50:09.504Z,99.90
2022-09-16T05:52:37.959Z,99.90
2022-09-16T05:55:07.289Z,99.90
2022-09-16T05:57:35.520Z,99.90
2022-09-16T06:00:04.384Z,99.90
2022-09-16T06:02:38.694Z,99.90
2022-09-16T06:05:16.815Z,99.90
2022-09-16T06:07:44.865Z,99.90
2022-09-16T06:11:23.452Z,99.90
2022-09-16T06:14:00.149Z,99.90
2022-09-16T06:16:29.937Z,99.90
2022-09-16T06:19:02.900Z,99.90
2022-09-16T06:21:30.937Z,99.90
2022-09-16T06:24:03.741Z,99.90
2022-09-16T06:27:08.662Z,99.90
2022-09-16T06:29:36.626Z,99.90
2022-09-16T06:32:11.208Z,99.90
2022-09-16T06:34:47.406Z,99.90
2022-09-16T06:37:19.019Z,99.90
2022-09-16T06:39:47.451Z,99.90
2022-09-16T06:42:59.979Z,99.90
2022-09-16T06:46:02.927Z,99.90
2022-09-16T06:48:35.018Z,99.90
2022-09-16T06:51:08.428Z,99.90
2022-09-16T06:53:36.684Z,99.90
2022-09-16T07:05:56.338Z,99.90
2022-09-16T07:08:25.581Z,99.90
2022-09-16T07:11:04.471Z,99.90
2022-09-16T07:13:41.257Z,99.90
2022-09-16T07:16:15.143Z,99.90
2022-09-16T07:18:43.689Z,99.90
2022-09-16T07:21:12.790Z,99.90
2022-09-16T07:23:42.308Z,99.90
2022-09-16T07:30:57.556Z,99.90
2022-09-16T07:33:26.100Z,99.90
2022-09-16T07:39:44.772Z,99.90
2022-09-16T07:42:15.736Z,99.90
2022-09-16T07:44:45.995Z,99.90
2022-09-16T07:47:17.810Z,99.90
2022-09-16T07:49:56.266Z,99.90
2022-09-16T07:52:29.587Z,99.90
2022-09-16T07:54:57.589Z,99.90
2022-09-16T08:02:09.609Z,99.90
2022-09-16T08:04:37.937Z,99.90
2022-09-16T08:07:06.670Z,99.90
2022-09-16T08:10:08.183Z,99.90
2022-09-16T08:12:36.794Z,99.90
2022-09-16T08:15:07.294Z,99.90
2022-09-16T08:17:36.503Z,99.90
2022-09-16T08:20:06.992Z,99.90
2022-09-16T08:22:35.200Z,99.90
2022-09-16T08:30:13.047Z,99.90
2022-09-16T08:32:48.682Z,99.90
2022-09-16T08:35:16.984Z,99.90
2022-09-16T08:37:49.974Z,99.90
2022-09-16T08:44:36.551Z,99.90
2022-09-16T08:47:09.844Z,99.90
2022-09-16T08:49:51.604Z,99.90
2022-09-16T08:52:32.212Z,99.90
2022-09-16T08:55:02.099Z,99.90
2022-09-16T08:57:33.952Z,99.90
2022-09-16T09:00:05.451Z,99.90
2022-09-16T09:02:38.592Z,99.90
2022-09-16T09:05:22.118Z,99.90
2022-09-16T09:07:58.292Z,99.90
2022-09-16T09:10:32.178Z,99.90
2022-09-16T09:13:15.245Z,99.90
2022-09-16T09:15:56.931Z,99.90
2022-09-16T09:18:37.964Z,99.90
2022-09-16T09:21:17.605Z,99.90
2022-09-16T09:23:58.203Z,99.90
2022-09-16T09:26:35.745Z,99.90
2022-09-16T09:29:28.520Z,99.90
2022-09-16T09:31:59.743Z,99.90
2022-09-16T09:34:31.811Z,99.90
2022-09-16T09:37:28.406Z,99.90
2022-09-16T09:40:05.474Z,99.90
2022-09-16T09:43:38.004Z,99.90
2022-09-16T09:46:23.380Z,99.90
2022-09-16T09:49:11.599Z,99.90
2022-09-16T09:51:43.444Z,99.90
2022-09-16T09:54:32.282Z,99.90
2022-09-16T09:57:04.313Z,99.90
2022-09-16T09:59:37.280Z,99.90
2022-09-16T10:02:14.196Z,99.90
2022-09-16T10:04:50.198Z,99.90
2022-09-16T10:07:50.869Z,99.90
2022-09-16T10:10:23.405Z,99.90
2022-09-16T10:13:13.363Z,99.90
2022-09-16T10:15:41.651Z,99.90
2022-09-16T10:18:12.381Z,99.90
2022-09-16T10:21:05.280Z,99.90
2022-09-16T10:23:35.990Z,99.90
2022-09-16T10:26:17.121Z,99.90
2022-09-16T10:28:59.873Z,99.90
2022-09-16T10:31:36.271Z,99.90
2022-09-16T10:34:05.875Z,99.90
2022-09-16T10:37:07.238Z,99.90
2022-09-16T10:39:35.673Z,99.90
2022-09-16T10:42:07.992Z,99.90
2022-09-16T10:44:40.293Z,99.90
2022-09-16T10:47:16.726Z,99.90
2022-09-16T10:49:56.751Z,99.90
2022-09-16T10:52:26.633Z,99.10
2022-09-16T10:54:56.882Z,99.90
2022-09-16T10:57:32.557Z,99.70
2022-09-16T11:00:24.896Z,99.90
2022-09-16T11:03:23.862Z,99.90
2022-09-16T11:10:53.232Z,99.90
2022-09-16T11:13:40.614Z,99.90
2022-09-16T11:16:27.871Z,99.90
2022-09-16T11:19:07.951Z,99.90
2022-09-16T11:21:36.001Z,99.90
2022-09-16T11:24:15.099Z,96.40
2022-09-16T11:26:45.716Z,98.20
2022-09-16T11:29:26.759Z,94.40
2022-09-16T11:32:13.759Z,94.20
2022-09-16T11:34:54.081Z,93.80
2022-09-16T11:37:30.519Z,95.00
2022-09-16T11:40:16.717Z,93.00
2022-09-16T11:43:21.698Z,94.20
2022-09-16T11:46:03.500Z,95.60
2022-09-16T11:48:52.938Z,96.20
2022-09-16T11:51:30.789Z,96.90
2022-09-16T11:54:18.382Z,95.70
2022-09-16T11:56:53.660Z,95.80
2022-09-16T11:59:31.888Z,96.50
2022-09-16T12:02:02.617Z,97.70
2022-09-16T12:04:38.943Z,97.10
2022-09-16T12:07:16.012Z,97.50
2022-09-16T12:09:52.729Z,98.70
2022-09-16T12:12:24.027Z,98.30
2022-09-16T12:15:03.288Z,96.70
2022-09-16T12:17:38.455Z,95.60
2022-09-16T12:20:22.514Z,94.40
2022-09-16T12:22:56.422Z,94.70
2022-09-16T12:25:33.746Z,95.80
2022-09-16T12:28:04.653Z,99.30
2022-09-16T12:30:37.309Z,99.90
2022-09-16T12:33:17.859Z,99.90
2022-09-16T12:35:59.219Z,99.90
2022-09-16T12:38:40.348Z,99.90
2022-09-16T12:41:12.943Z,99.90
2022-09-16T12:48:44.916Z,99.90
2022-09-16T12:51:22.007Z,98.30
2022-09-16T12:53:55.322Z,96.80
2022-09-16T12:56:56.903Z,93.90
2022-09-16T12:59:37.039Z,94.70
2022-09-16T13:02:24.989Z,92.60
2022-09-16T13:04:56.015Z,93.30
2022-09-16T13:07:26.746Z,91.70
2022-09-16T13:10:14.674Z,95.40
2022-09-16T13:12:44.686Z,91.10
2022-09-16T13:20:25.632Z,89.70
2022-09-16T13:23:04.096Z,90.60
2022-09-16T13:25:51.730Z,95.40
2022-09-16T13:28:23.275Z,99.10
2022-09-16T13:30:57.263Z,96.60
2022-09-16T13:33:28.829Z,95.80
2022-09-16T13:41:02.646Z,93.20
2022-09-16T13:43:36.506Z,92.50
2022-09-16T13:46:11.137Z,92.50
2022-09-16T13:48:50.341Z,93.30
2022-09-16T13:51:22.769Z,90.80
2022-09-16T13:53:58.156Z,89.40
2022-09-16T13:56:42.140Z,86.70
2022-09-16T13:59:20.784Z,90.90
2022-09-16T14:01:59.571Z,92.00
2022-09-16T14:04:35.702Z,92.00
2022-09-16T14:07:04.174Z,92.90
2022-09-16T14:10:06.443Z,99.90
2022-09-16T14:12:43.970Z,99.90
2022-09-16T14:15:16.269Z,99.90
2022-09-16T14:17:51.096Z,99.90
2022-09-16T14:20:21.377Z,99.90
2022-09-16T14:23:00.595Z,99.90
2022-09-16T14:25:34.074Z,99.90
2022-09-16T14:28:19.907Z,99.90
2022-09-16T14:35:24.819Z,99.90
2022-09-16T14:37:56.566Z,99.90
2022-09-16T14:40:25.518Z,99.90
2022-09-16T14:43:00.562Z,99.90
2022-09-16T14:45:29.291Z,99.90
2022-09-16T14:48:02.731Z,99.90
2022-09-16T14:50:32.587Z,99.90
2022-09-16T14:53:02.300Z,99.90
2022-09-16T14:55:35.964Z,99.90
2022-09-16T14:58:12.866Z,99.90
2022-09-16T15:00:55.260Z,99.90
2022-09-16T15:03:27.580Z,99.90
2022-09-16T15:05:58.917Z,99.90
2022-09-16T15:08:27.187Z,99.90
2022-09-16T15:10:58.462Z,99.90
2022-09-16T15:13:29.139Z,99.90
2022-09-16T15:16:17.970Z,99.90
2022-09-16T15:19:19.594Z,99.90
2022-09-16T15:21:48.435Z,99.90
2022-09-16T15:24:20.728Z,99.90
2022-09-16T15:26:49.758Z,99.90
2022-09-16T15:29:30.057Z,99.90
2022-09-16T15:32:19.106Z,99.90
2022-09-16T15:34:48.410Z,99.90
2022-09-16T15:37:34.706Z,99.90
2022-09-16T15:40:27.477Z,99.90
2022-09-16T15:43:12.819Z,99.90
2022-09-16T15:45:43.502Z,99.90
2022-09-16T15:48:32.115Z,99.90
2022-09-16T15:51:03.565Z,99.90
2022-09-16T15:53:42.578Z,99.90
2022-09-16T15:56:30.299Z,99.90
2022-09-16T15:59:20.991Z,99.90
2022-09-16T16:01:53.617Z,99.90
2022-09-16T16:04:23.209Z,99.90
2022-09-16T16:06:53.813Z,99.90
2022-09-16T16:09:29.996Z,99.90
2022-09-16T16:11:59.332Z,99.90
2022-09-16T16:14:34.042Z,99.90
2022-09-16T16:17:13.169Z,99.90
2022-09-16T16:19:49.751Z,99.90
2022-09-16T16:22:21.232Z,99.90
2022-09-16T16:24:49.501Z,99.90
2022-09-16T16:27:18.311Z,99.90
2022-09-16T16:29:47.949Z,99.90
2022-09-16T16:32:17.299Z,99.90
2022-09-16T16:34:47.708Z,99.90
2022-09-16T16:37:40.188Z,99.90
2022-09-16T16:40:08.038Z,99.90
2022-09-16T16:42:45.176Z,99.90
2022-09-16T16:45:14.897Z,99.90
2022-09-16T16:47:44.729Z,99.90
2022-09-16T16:50:13.486Z,99.90
2022-09-16T16:52:42.201Z,99.90
2022-09-16T16:55:11.984Z,99.90
2022-09-16T16:57:41.824Z,99.90
2022-09-16T17:00:19.387Z,99.90
2022-09-16T17:02:51.850Z,99.90
2022-09-16T17:05:28.672Z,99.90
2022-09-16T17:07:57.307Z,99.90
2022-09-16T17:10:26.683Z,99.90
2022-09-16T17:12:56.250Z,99.90
2022-09-16T17:15:25.686Z,99.90
2022-09-16T17:17:54.065Z,99.90
2022-09-16T17:20:23.182Z,99.90
2022-09-16T17:22:53.323Z,99.90
2022-09-16T17:25:23.772Z,99.90
2022-09-16T17:27:52.472Z,99.90
2022-09-16T17:30:30.558Z,99.90
2022-09-16T17:38:35.668Z,99.90
2022-09-16T17:41:05.333Z,99.90
2022-09-16T17:43:38.474Z,99.90
2022-09-16T17:46:08.753Z,99.90
2022-09-16T17:48:39.358Z,99.90
2022-09-16T17:51:13.005Z,99.90
2022-09-16T17:53:41.653Z,99.90
2022-09-16T17:56:20.611Z,99.90
2022-09-16T17:58:52.352Z,99.90
2022-09-16T18:01:22.427Z,99.90
2022-09-16T18:03:55.819Z,99.90
2022-09-16T18:06:29.132Z,99.90
2022-09-16T18:09:00.309Z,99.90
2022-09-16T18:11:29.120Z,99.90
2022-09-16T18:13:57.901Z,99.90
2022-09-16T18:16:26.100Z,99.90
2022-09-16T18:18:56.458Z,99.90
2022-09-16T18:21:29.310Z,99.90
2022-09-16T18:24:02.932Z,99.90
2022-09-16T18:26:36.221Z,99.90
2022-09-16T18:29:09.950Z,99.90
2022-09-16T18:31:45.423Z,99.90
2022-09-16T18:34:20.075Z,99.90
2022-09-16T18:36:51.104Z,99.90
2022-09-16T18:42:46.838Z,99.90
2022-09-16T18:45:15.258Z,99.90
2022-09-16T18:48:25.190Z,99.90
2022-09-16T18:55:44.430Z,99.90
2022-09-16T18:58:12.495Z,99.90
2022-09-16T19:00:41.341Z,99.90
2022-09-16T19:03:10.705Z,99.90
2022-09-16T19:05:38.928Z,99.90
2022-09-16T19:08:11.066Z,99.90
2022-09-16T19:20:25.390Z,99.90
2022-09-16T19:22:54.904Z,99.90
2022-09-16T19:25:23.048Z,99.90
2022-09-16T19:27:51.339Z,99.90
2022-09-16T19:30:19.987Z,99.90
2022-09-16T19:32:48.748Z,99.90
2022-09-16T19:35:19.843Z,99.90
2022-09-16T19:46:28.944Z,99.90
2022-09-16T19:48:57.978Z,99.90
2022-09-16T19:59:55.475Z,99.90
2022-09-16T20:02:23.295Z,99.90
2022-09-16T20:09:40.997Z,99.90
2022-09-16T20:12:15.269Z,99.90
2022-09-16T20:14:50.591Z,99.90
2022-09-16T20:22:09.453Z,99.90
2022-09-16T20:24:37.901Z,99.90
2022-09-16T20:35:06.642Z,99.90
2022-09-16T20:37:35.359Z,99.90
2022-09-16T20:40:13.417Z,99.90
2022-09-16T20:43:17.103Z,99.90
2022-09-16T20:55:27.380Z,99.90
2022-09-16T21:05:59.840Z,99.90
2022-09-16T21:13:52.710Z,99.90
2022-09-16T21:16:21.665Z,99.90
2022-09-16T21:18:54.319Z,99.90
2022-09-16T21:21:33.318Z,99.90
2022-09-16T21:24:08.035Z,99.90
2022-09-16T21:26:41.457Z,99.90
2022-09-16T21:29:19.543Z,99.90
2022-09-16T21:31:49.311Z,99.90
2022-09-16T21:34:26.627Z,99.90
2022-09-16T21:41:34.906Z,99.90
2022-09-16T21:44:04.399Z,99.90
2022-09-16T21:46:39.868Z,99.90
2022-09-16T21:49:40.739Z,99.90
2022-09-16T22:05:34.808Z,99.90
2022-09-16T22:08:07.066Z,99.90
2022-09-16T22:10:35.865Z,99.90
2022-09-16T22:13:04.465Z,99.90
2022-09-16T22:15:36.643Z,99.90
2022-09-16T22:18:05.108Z,99.90
2022-09-16T22:20:33.538Z,99.90
2022-09-16T22:23:02.657Z,99.90
2022-09-16T22:25:31.084Z,99.90
2022-09-16T23:00:40.611Z,99.90
2022-09-16T23:03:09.873Z,99.90
2022-09-16T23:09:37.908Z,99.90
2022-09-16T23:24:48.080Z,99.90
2022-09-16T23:27:16.190Z,99.90
2022-09-16T23:29:44.257Z,99.90
2022-09-16T23:32:11.963Z,99.90
2022-09-16T23:34:40.071Z,99.90
2022-09-16T23:42:36.567Z,99.90
2022-09-16T23:49:53.364Z,99.90
2022-09-16T23:52:25.375Z,99.90
2022-09-16T23:54:54.234Z,99.90
2022-09-16T23:57:23.061Z,99.90
2022-09-16T23:59:59.229Z,99.90
